Texas 商标

Spring, TX 独户式别墅出售

1600 全部出售房产 * 点击表头进行排选
发布日期 房产类型 风格 地址 价格 居住环境 地皮面积 价格/平方英尺.
2018-01-21 独户式别墅 Traditional 17031 Windrow Drive Spring, TX 77379 $294,500 3,353 平方英尺. 13,939 平方英尺. $88
2018-01-21 独户式别墅 Traditional 3642 Chapel Square Drive Spring, TX 77388 $207,500 2,354 平方英尺. 8,276 平方英尺. $88
2018-01-21 独户式别墅 Ranch; Traditional 3424 Spring Creek Drive Spring, TX 77373 $250,000 1,714 平方英尺. 87,120 平方英尺. $146
2018-01-20 独户式别墅 Traditional 31407 Linden Springs Court Spring, TX 77386 $355,000 2,988 平方英尺. 8,712 平方英尺. $119
2018-01-20 独户式别墅 Traditional 20922 Normandy Forest Drive Spring, TX 77388 $194,900 1,932 平方英尺. 6,534 平方英尺. $101
2018-01-20 独户式别墅 Traditional 22822 Earlmist Drive Spring, TX 77373 $135,000 1,795 平方英尺. 9,148 平方英尺. $75
2018-01-20 独户式别墅 Traditional 19922 Brookway Oak Court Spring, TX 77379 $298,000 3,346 平方英尺. 6,534 平方英尺. $89
2018-01-20 独户式别墅 Traditional 11031 Ellwood Street Spring, TX 77380 $225,000 1,422 平方英尺. 10,890 平方英尺. $158
2018-01-20 独户式别墅 Traditional 1523 Sungail Drive Spring, TX 77386 $240,000 2,058 平方英尺. 18,295 平方英尺. $117
2018-01-20 独户式别墅 Traditional 23406 Briarcreek Boulevard Spring, TX 77373 $120,000 1,568 平方英尺. 7,405 平方英尺. $77
2018-01-19 独户式别墅 Traditional 2215 Louetta Falls Lane Spring, TX 77388 $198,000 1,886 平方英尺. 6,534 平方英尺. $105
2018-01-19 独户式别墅 Traditional 29607 Indigo Shore Way Spring, TX 77386 $400,000 3,475 平方英尺. 6,534 平方英尺. $115
2018-01-19 独户式别墅 Traditional 10 Mammoth Springs Court Spring, TX 77382 $709,900 4,024 平方英尺. 16,117 平方英尺. $176
2018-01-19 独户式别墅 Ranch 5506 Maplegate Drive Spring, TX 77373 $124,000 1,656 平方英尺. 7,841 平方英尺. $75
2018-01-19 独户式别墅 Ranch 23031 Bridgewater Drive Spring, TX 77373 $139,500 1,565 平方英尺. 12,197 平方英尺. $89
2018-01-19 独户式别墅 Traditional 4339 Croft Creek Drive Spring, TX 77386 $369,900 2,935 平方英尺. 6,970 平方英尺. $126
2018-01-19 独户式别墅 Traditional 23731 Verngate Drive Spring, TX 77373 $159,900 1,480 平方英尺. 9,148 平方英尺. $108
2018-01-19 独户式别墅 Traditional 16822 Sedona Springs Lane Spring, TX 77379 $299,000 3,777 平方英尺. 8,276 平方英尺. $79
2018-01-19 独户式别墅 Traditional 7431 Alderly Drive Spring, TX 77389 $204,900 1,839 平方英尺. 8,276 平方英尺. $111
2018-01-19 独户式别墅 Traditional 18 Abbey Brook Place Spring, TX 77381 $225,000 1,503 平方英尺. 11,761 平方英尺. $150
2018-01-19 独户式别墅 Traditional 4410 Quasar Court Spring, TX 77386 $302,040 2,713 平方英尺. $111
2018-01-19 独户式别墅 Traditional 27374 Shady Hills Landing Lane Spring, TX 77386 $1,100,000 4,875 平方英尺. 98,881 平方英尺. $226
2018-01-19 独户式别墅 Traditional 107 Ascot Way Court Spring, TX 77382 $365,000 2,477 平方英尺. 11,326 平方英尺. $147
2018-01-19 独户式别墅 Traditional 1503 Moston Drive Spring, TX 77386 $199,900 2,040 平方英尺. 7,405 平方英尺. $98
2018-01-19 独户式别墅 Traditional 29218 Legends Beam Drive Spring, TX 77386 $199,990 2,660 平方英尺. 5,227 平方英尺. $75
2018-01-19 独户式别墅 Traditional 131 Concord Forest Circle Spring, TX 77381 $595,000 3,893 平方英尺. 10,890 平方英尺. $153
2018-01-19 独户式别墅 Traditional 22506 Rocky Glen Court Spring, TX 77373 $164,900 1,672 平方英尺. 9,148 平方英尺. $99
2018-01-19 独户式别墅 Traditional 9010 Robinhoods Well Drive Spring, TX 77379 $276,000 2,611 平方英尺. 7,405 平方英尺. $106
2018-01-18 独户式别墅 Traditional 11 Spindrift Place Spring, TX 77381 $1,100,000 4,672 平方英尺. 14,810 平方英尺. $235
2018-01-18 独户式别墅 Traditional 4527 Stallion Brook Lane Spring, TX 77388 $164,900 1,560 平方英尺. 9,148 平方英尺. $106
2018-01-18 独户式别墅 Ranch 3223 Willie Way Spring, TX 77380 $129,500 1,498 平方英尺. 9,148 平方英尺. $86
2018-01-18 独户式别墅 Traditional 29531 Westhope Drive Spring, TX 77386 $274,165 2,134 平方英尺. $128
2018-01-18 独户式别墅 Traditional 16935 Amidon Drive Spring, TX 77379 $164,999 1,459 平方英尺. 4,792 平方英尺. $113
2018-01-18 独户式别墅 Traditional 17022 Shadow Valley Drive Spring, TX 77379 $260,000 2,335 平方英尺. 10,019 平方英尺. $111
2018-01-18 独户式别墅 Traditional 22802 Fairfax Village Circle Spring, TX 77373 $72,500 1,746 平方英尺. 8,276 平方英尺. $42
2018-01-18 独户式别墅 Traditional 30307 Deleon Fields Drive Spring, TX 77386 $218,000 1,998 平方英尺. 5,663 平方英尺. $109
2018-01-18 独户式别墅 Traditional 15 Acacia Park Circle Spring, TX 77382 $279,000 2,066 平方英尺. 7,841 平方英尺. $135
2018-01-18 独户式别墅 Traditional 19335 St Domnina Drive Spring, TX 77379 $329,990 3,562 平方英尺. 6,970 平方英尺. $93
2018-01-18 独户式别墅 Traditional 17314 Bonnard Circle Spring, TX 77379 $339,990 3,869 平方英尺. 8,712 平方英尺. $88
2018-01-18 独户式别墅 Traditional 24010 Leblanc Landing Drive Spring, TX 77389 $289,900 3,329 平方英尺. 6,534 平方英尺. $87
2018-01-18 独户式别墅 Traditional 3602 Vashon Lane Spring, TX 77388 $539,900 4,978 平方英尺. 11,326 平方英尺. $108
2018-01-18 独户式别墅 Traditional 20314 Linseed Drive Spring, TX 77388 $261,870 2,494 平方英尺. 6,534 平方英尺. $105
2018-01-18 独户式别墅 Traditional 2031 Treasure Mountain Drive Spring, TX 77388 $199,900 2,124 平方英尺. 6,970 平方英尺. $94
2018-01-18 独户式别墅 Traditional 3602 Beacon Creek Court Spring, TX 77386 $220,000 1,955 平方英尺. 6,534 平方英尺. $113
2018-01-17 独户式别墅 Traditional 6502 Meadowtrace Drive Spring, TX 77389 $225,000 2,522 平方英尺. 13,504 平方英尺. $89
2018-01-17 独户式别墅 Traditional 827 Audra Lane Spring, TX 77386 $235,000 1,966 平方英尺. 4,356 平方英尺. $120
2018-01-17 独户式别墅 Traditional 4107 Cypress Lake Drive Spring, TX 77388 $197,000 2,627 平方英尺. 8,712 平方英尺. $75
2018-01-17 独户式别墅 Traditional 25514 Oakhurst Drive Spring, TX 77386 $332,000 2,020 平方英尺. 17,424 平方英尺. $164
2018-01-17 独户式别墅 Traditional 58 Greywing Circle Spring, TX 77382 $359,900 2,635 平方英尺. 6,970 平方英尺. $137
2018-01-17 独户式别墅 Traditional 3327 La Seine Lane Spring, TX 77388 $185,000 2,136 平方英尺. 6,534 平方英尺. $87
2018-01-17 独户式别墅 Ranch 23919 Clipper Hill Lane Spring, TX 77373 $240,000 1,765 平方英尺. 5,663 平方英尺. $136
2018-01-17 独户式别墅 Traditional 20507 Spring Orchard Lane Spring, TX 77388 $179,000 2,499 平方英尺. 5,663 平方英尺. $72
2018-01-17 独户式别墅 Traditional 23519 Goldking Cross Court Spring, TX 77373 $185,000 2,599 平方英尺. 6,534 平方英尺. $71
2018-01-17 独户式别墅 Other Style 23310 Vista De Tres Lagos Spring, TX 77389 $1,199,000 5,097 平方英尺. 17,424 平方英尺. $235
2018-01-17 独户式别墅 Traditional 502 Spring Lakes Haven Spring, TX 77373 $335,000 3,359 平方英尺. 16,553 平方英尺. $100
2018-01-17 独户式别墅 Traditional 18726 Duke Lake Drive Spring, TX 77388 $490,000 3,539 平方英尺. 8,712 平方英尺. $138
2018-01-17 独户式别墅 Traditional 4406 Sloangate Drive Spring, TX 77373 $139,900 1,637 平方英尺. 6,534 平方英尺. $85
2018-01-16 独户式别墅 Traditional 62 Sawbridge Circle Spring, TX 77389 $359,995 2,824 平方英尺. 6,098 平方英尺. $127
2018-01-16 独户式别墅 Traditional 17830 Shady Arbor Lane Spring, TX 77379 $399,000 4,038 平方英尺. 16,553 平方英尺. $99
2018-01-16 独户式别墅 French 6322 Allentown Drive Spring, TX 77389 $275,000 2,776 平方英尺. 18,295 平方英尺. $99
2018-01-16 独户式别墅 Contemporary/Modern 20327 Louetta Reach Dr, Spring, TX 77388 $180,000 2,124 平方英尺. 6,098 平方英尺. $85
2018-01-16 独户式别墅 Traditional 23310 Sandpiper Trail Spring, TX 77373 $159,990 1,600 平方英尺. 7,841 平方英尺. $100
2018-01-16 独户式别墅 Traditional 7711 Friars Court Lane Spring, TX 77379 $140,000 2,068 平方英尺. 8,712 平方英尺. $68
2018-01-16 独户式别墅 Traditional 4418 Countrypines Drive Spring, TX 77388 $232,000 2,098 平方英尺. 6,534 平方英尺. $111
2018-01-16 独户式别墅 Traditional 25006 Jennifer Heights Court Spring, TX 77389 $570,123 3,872 平方英尺. 10,454 平方英尺. $147
2018-01-16 独户式别墅 Traditional 4926 Tres Lagos Drive Spring, TX 77389 $795,000 4,070 平方英尺. $195
2018-01-16 独户式别墅 Traditional 6803 Vanessa Springs Lane Spring, TX 77389 $694,428 4,550 平方英尺. 12,632 平方英尺. $153
2018-01-16 独户式别墅 Traditional 3718 Pinebrook Hollow Lane Spring, TX 77386 $339,900 2,489 平方英尺. 8,276 平方英尺. $137
2018-01-16 独户式别墅 Other Style 23218 Summer Pine Drive Spring, TX 77373 $97,500 772 平方英尺. 6,534 平方英尺. $126
2018-01-16 独户式别墅 Contemporary/Modern 22 Mossrock Road Spring, TX 77380 $269,900 1,941 平方英尺. 7,841 平方英尺. $139
2018-01-16 独户式别墅 Contemporary/Modern 1426 Reno Ridge Ln Spring, TX 77373 $232,340 2,941 平方英尺. $79
2018-01-16 独户式别墅 Traditional 25127 Wilderness Road Spring, TX 77380 $189,900 1,373 平方英尺. 13,939 平方英尺. $138
2018-01-16 独户式别墅 Georgian; Traditional 10 E Shaker Lane Spring, TX 77380 $739,000 4,766 平方英尺. 34,412 平方英尺. $155
2018-01-16 独户式别墅 Traditional 31722 Hidden Woods Lane Spring, TX 77386 $259,900 2,118 平方英尺. 7,841 平方英尺. $123
2018-01-16 独户式别墅 Traditional 3567 Hamilton Bend Lane Spring, TX 77386 $265,000 2,425 平方英尺. 6,534 平方英尺. $109
2018-01-16 独户式别墅 Traditional 8314 Domer Drive Spring, TX 77379 $310,000 2,340 平方英尺. 8,276 平方英尺. $132
2018-01-15 独户式别墅 Split Level; Traditional 3306 Asbury Glen Court Spring, TX 77386 $339,000 2,843 平方英尺. 7,405 平方英尺. $119
2018-01-15 独户式别墅 Traditional 90 Arrow Canyon Circle Spring, TX 77389 $562,500 3,750 平方英尺. 9,148 平方英尺. $150
2018-01-15 独户式别墅 Traditional 30 Sagamore Ridge Place Spring, TX 77389 $368,000 3,166 平方英尺. 11,326 平方英尺. $116
2018-01-15 独户式别墅 Traditional 15 Twilight Plain Place Spring, TX 77381 $669,000 4,031 平方英尺. 15,246 平方英尺. $166
2018-01-15 独户式别墅 Traditional 422 Pinewood Ridge Drive Spring, TX 77386 $239,900 2,816 平方英尺. 6,098 平方英尺. $85
2018-01-15 独户式别墅 Ranch; Traditional 3 Almond Branch Place Spring, TX 77382 $250,000 1,860 平方英尺. 10,019 平方英尺. $134
2018-01-15 独户式别墅 Traditional 23631 Stargazer Pt Spring, TX 77373 $150,000 1,758 平方英尺. 5,227 平方英尺. $85
2018-01-15 独户式别墅 Traditional 8303 Rockford Hall Drive Spring, TX 77379 $299,900 3,088 平方英尺. 9,148 平方英尺. $97
2018-01-15 独户式别墅 Traditional 5022 Beaubridge Lane Spring, TX 77379 $175,000 1,666 平方英尺. 6,098 平方英尺. $105
2018-01-15 独户式别墅 Other Style 9703 Galston Lane Spring, TX 77379 $149,999 2,797 平方英尺. 6,970 平方英尺. $54
2018-01-15 独户式别墅 Contemporary/Modern 1439 Reno Ridge Spring, TX 77373 $180,990
2018-01-15 独户式别墅 Split Level 16259 Rutley Circle Spring, TX 77379 $179,000 2,226 平方英尺. 8,712 平方英尺. $80
2018-01-15 独户式别墅 Ranch; Traditional 90 Honey Grove Place Spring, TX 77382 $269,000 1,905 平方英尺. 8,712 平方英尺. $141
2018-01-15 独户式别墅 Traditional 22139 Rustling Springs Drive Spring, TX 77389 $310,000 3,006 平方英尺. 6,098 平方英尺. $103
2018-01-15 独户式别墅 Traditional 4003 Chapel Square Drive Spring, TX 77388 $189,900 2,128 平方英尺. 9,148 平方英尺. $89
2018-01-15 独户式别墅 Traditional 6907 Jenny Lake Drive Spring, TX 77379 $375,000 4,060 平方英尺. 7,405 平方英尺. $92
2018-01-15 独户式别墅 Traditional 5110 Ridge Beam Lane Spring, TX 77389 $275,000 2,200 平方英尺. 6,970 平方英尺. $125
2018-01-14 独户式别墅 Contemporary/Modern 21618 Falvel Sunrise Court Spring, TX 77388 $235,000 2,522 平方英尺. 5,227 平方英尺. $93
2018-01-14 独户式别墅 Contemporary/Modern 3814 Acornrun Lane Spring, TX 77389 $199,900 2,588 平方英尺. 12,197 平方英尺. $77
2018-01-14 独户式别墅 Traditional 25210 Nichilo Drive Spring, TX 77389 $434,900 3,752 平方英尺. 9,148 平方英尺. $116
2018-01-14 独户式别墅 Contemporary/Modern 255 Golden Arrow Circle Spring, TX 77381 $299,000 2,592 平方英尺. 7,405 平方英尺. $115
2018-01-14 独户式别墅 Ranch; Traditional 4303 Mossygate Drive Spring, TX 77373 $129,995 1,496 平方英尺. 10,019 平方英尺. $87
2018-01-14 独户式别墅 Traditional 4435 Rosegate Drive Spring, TX 77373 $117,500 1,350 平方英尺. 6,970 平方英尺. $87
2018-01-14 独户式别墅 Traditional 2515 Pembroke Springs Spring, TX 77373 $180,000 1,742 平方英尺. 5,663 平方英尺. $103
2018-01-14 独户式别墅 Traditional 2138 Westover Park Circle Spring, TX 77386 $307,000 3,200 平方英尺. 7,841 平方英尺. $96
2018-01-14 独户式别墅 Traditional 19807 Brookway Cedar Court Spring, TX 77379 $289,990 3,689 平方英尺. 11,326 平方英尺. $79
2018-01-14 独户式别墅 Traditional 1714 Milholland Drive Spring, TX 77386 $229,900 1,988 平方英尺. 7,405 平方英尺. $116
2018-01-14 独户式别墅 Traditional 3328 Starlight Hill Court Spring, TX 77386 $335,000 2,804 平方英尺. 7,405 平方英尺. $119
2018-01-14 独户式别墅 Mediterranean 10 Bayou Club Court Spring, TX 77389 $1,700,000 5,205 平方英尺. 20,909 平方英尺. $327
2018-01-14 独户式别墅 Traditional 3 Brakendale Place Spring, TX 77389 $399,000 2,502 平方英尺. 6,534 平方英尺. $159
2018-01-14 独户式别墅 Traditional 22810 Fairfax Village Circle Spring, TX 77373 $79,900 1,885 平方英尺. 4,792 平方英尺. $42
2018-01-13 独户式别墅 Traditional 14 Coldsprings Court Spring, TX 77380 $825,000 5,758 平方英尺. 52,272 平方英尺. $143
2018-01-13 独户式别墅 Contemporary/Modern; Mediterranean; Traditional 66 Cochrans Green Circle Spring, TX 77381 $449,900 3,442 平方英尺. 11,761 平方英尺. $131
2018-01-13 独户式别墅 Traditional 818 Autumn Point Lane Spring, TX 77373 $180,000 2,289 平方英尺. 6,970 平方英尺. $79
2018-01-13 独户式别墅 Traditional 19314 Sanctuary Robin Lane Spring, TX 77388 $365,000 2,951 平方英尺. 10,454 平方英尺. $124
2018-01-13 独户式别墅 Traditional 30706 Sage Trace Court Spring, TX 77386 $265,990 2,818 平方英尺. 6,970 平方英尺. $94
2018-01-12 独户式别墅 Traditional 16218 Rutley Circle Spring, TX 77379 $289,900 2,540 平方英尺. 7,841 平方英尺. $114
2018-01-12 独户式别墅 Traditional 3511 Bakerswood Drive Spring, TX 77386 $219,900 2,087 平方英尺. 6,098 平方英尺. $105
2018-01-12 独户式别墅 Traditional 20211 Cypresswood Estates Run Spring, TX 77373 $229,900 2,318 平方英尺. 6,098 平方英尺. $99
2018-01-12 独户式别墅 Traditional 630 Cypresswood Estates Lane Spring, TX 77373 $245,000 2,805 平方英尺. 8,276 平方英尺. $87
2018-01-12 独户式别墅 Ranch; Traditional 24711 Wilderness Road Spring, TX 77380 $89,900 2,010 平方英尺. 12,197 平方英尺. $45
2018-01-12 独户式别墅 Traditional 3115 Clover Trace Drive Spring, TX 77386 $229,000 2,140 平方英尺. 7,841 平方英尺. $107
2018-01-12 独户式别墅 Traditional 20730 Misty Crossing Lane Spring, TX 77379 $325,000 3,430 平方英尺. 10,890 平方英尺. $95
2018-01-12 独户式别墅 Traditional 8 Kino Court Spring, TX 77380 $184,900 1,662 平方英尺. 5,663 平方英尺. $111
2018-01-12 独户式别墅 Traditional 2423 Keegan Hollow Lane Spring, TX 77386 $169,900 1,475 平方英尺. 5,663 平方英尺. $115
2018-01-12 独户式别墅 Traditional 3815 Wrights Landing Drive Spring, TX 77386 $239,900 1,630 平方英尺. 7,405 平方英尺. $147
2018-01-12 独户式别墅 Traditional 57 Rockfern Court Spring, TX 77380 $205,000 1,816 平方英尺. 6,970 平方英尺. $113
2018-01-12 独户式别墅 Traditional 4059 Ashland Woods Drive Spring, TX 77386 $750,000 3,260 平方英尺. 9,148 平方英尺. $230
2018-01-12 独户式别墅 Traditional 19907 Ravens Thorpe Lane Spring, TX 77379 $427,995 3,539 平方英尺. $121
2018-01-12 独户式别墅 Traditional 31711 Cotton Forest Court Spring, TX 77386 $249,900 2,502 平方英尺. 10,454 平方英尺. $100
2018-01-12 独户式别墅 Traditional 30935 Sundance Woods Court Spring, TX 77386 $245,000 2,583 平方英尺. 5,227 平方英尺. $95
2018-01-12 独户式别墅 Traditional 4355 Croft Creek Drive Spring, TX 77386 $369,900 3,064 平方英尺. 6,098 平方英尺. $121
2018-01-12 独户式别墅 Ranch 1318 Spring Creek Drive Spring, TX 77386 $269,900 1,990 平方英尺. 26,572 平方英尺. $136
2018-01-12 独户式别墅 Traditional 28326 Rabbit Trail Spring, TX 77386 $339,900 2,598 平方英尺. 6,534 平方英尺. $131
2018-01-12 独户式别墅 Traditional 28108 Sunshine Hollow Drive Spring, TX 77386 $369,900 2,738 平方英尺. 7,841 平方英尺. $135
2018-01-12 独户式别墅 Traditional 3323 Chadington Lane Spring, TX 77388 $214,990 2,010 平方英尺. 6,534 平方英尺. $107
2018-01-12 独户式别墅 Traditional 4615 Deer Point Drive Spring, TX 77389 $153,000 2,030 平方英尺. 14,375 平方英尺. $75
2018-01-12 独户式别墅 Traditional 15 Shiny Pebble Place Spring, TX 77381 $345,000 2,439 平方英尺. 10,890 平方英尺. $141
2018-01-12 独户式别墅 Traditional 3347 Coltwood Drive Spring, TX 77388 $349,900 3,642 平方英尺. 10,019 平方英尺. $96
2018-01-12 独户式别墅 Traditional 25611 Ridgebrook Circle Spring, TX 77380 $235,999 2,523 平方英尺. 9,583 平方英尺. $94
2018-01-12 独户式别墅 Traditional 3003 Lake Falls Circle Spring, TX 77386 $279,000 3,642 平方英尺. 10,019 平方英尺. $77
2018-01-12 独户式别墅 Traditional 27302 Balson Forest Lane Spring, TX 77386 $330,000 3,179 平方英尺. 6,970 平方英尺. $104
2018-01-11 独户式别墅 Traditional 8411 Glenn Leigh Drive Spring, TX 77379 $360,000 4,188 平方英尺. 9,148 平方英尺. $86
2018-01-11 独户式别墅 Traditional 17831 Shadow Valley Drive Spring, TX 77379 $319,000 3,454 平方英尺. 10,454 平方英尺. $92
2018-01-11 独户式别墅 Traditional 21303 Hannover Pines Drive Spring, TX 77388 $267,900 2,630 平方英尺. 8,276 平方英尺. $102
2018-01-11 独户式别墅 Traditional 24043 Clipper Hill Lane Spring, TX 77373 $179,900 2,144 平方英尺. 11,326 平方英尺. $84
2018-01-11 独户式别墅 Traditional 25914 Northcrest Drive Spring, TX 77389 $399,000 3,917 平方英尺. 8,276 平方英尺. $102
2018-01-11 独户式别墅 Traditional 4126 Oxhill Road Spring, TX 77388 $199,000 2,504 平方英尺. 9,148 平方英尺. $79
2018-01-11 独户式别墅 Traditional 5710 Capella Park Drive Spring, TX 77379 $255,000 2,446 平方英尺. 7,841 平方英尺. $104
2018-01-11 独户式别墅 Traditional 4564 New Country Drive Spring, TX 77386 $282,290 2,413 平方英尺. $117
2018-01-11 独户式别墅 Traditional 3122 Snowbird Meadow Drive Spring, TX 77373 $175,000 1,985 平方英尺. 6,534 平方英尺. $88
2018-01-11 独户式别墅 Traditional 3835 Jewel Point Drive Spring, TX 77386 $159,000 1,633 平方英尺. 4,356 平方英尺. $97
2018-01-11 独户式别墅 Ranch 24351 Lenze Road Spring, TX 77389 $525,000 2,326 平方英尺. 54,014 平方英尺. $226
2018-01-11 独户式别墅 Traditional 16103 Kempton Park Drive Spring, TX 77379 $299,500 2,986 平方英尺. 7,841 平方英尺. $100
2018-01-11 独户式别墅 Traditional 2538 Spring Dusk Lane Spring, TX 77373 $110,000 1,199 平方英尺. 4,792 平方英尺. $92
2018-01-11 独户式别墅 Traditional 50 Millsap Circle Spring, TX 77382 $675,000 4,281 平方英尺. 20,909 平方英尺. $158
2018-01-11 独户式别墅 Traditional 19302 Brittany Creek Drive Spring, TX 77388 $254,900 2,651 平方英尺. 10,890 平方英尺. $96
2018-01-11 独户式别墅 Traditional 3431 Tulip Trace Drive Spring, TX 77386 $250,000 2,857 平方英尺. 5,227 平方英尺. $88
2018-01-11 独户式别墅 Traditional 3723 Blue Lake Drive Spring, TX 77388 $189,500 2,257 平方英尺. 7,841 平方英尺. $84
2018-01-11 独户式别墅 French 8007 Dutch Oak Circle Spring, TX 77379 $279,000 3,384 平方英尺. 10,890 平方英尺. $82
2018-01-11 独户式别墅 Traditional 25227 Metzler Creek Drive Spring, TX 77389 $489,900 4,446 平方英尺. 18,731 平方英尺. $110
2018-01-11 独户式别墅 Traditional 3523 Beacon Creek Court Spring, TX 77386 $227,000 1,949 平方英尺. 6,098 平方英尺. $116
2018-01-11 独户式别墅 Traditional 23519 Briarcreek Boulevard Spring, TX 77373 $120,000 1,647 平方英尺. 6,534 平方英尺. $73
2018-01-11 独户式别墅 Traditional 31327 Sunset Oaks Lane Spring, TX 77386 $400,000 3,492 平方英尺. 11,761 平方英尺. $115
2018-01-11 独户式别墅 Traditional 5827 Stratton Woods Drive Spring, TX 77389 $599,950 4,385 平方英尺. 11,326 平方英尺. $137
2018-01-11 独户式别墅 Traditional 20310 Rosegold Way Spring, TX 77379 $383,657 3,669 平方英尺. 10,019 平方英尺. $105
2018-01-11 独户式别墅 Traditional 20507 Stillhaven Road Spring, TX 77379 $420,020 3,724 平方英尺. 10,454 平方英尺. $113
2018-01-11 独户式别墅 Traditional 7603 Candlelight Park Lane Spring, TX 77379 $394,038 3,443 平方英尺. 9,583 平方英尺. $114
2018-01-11 独户式别墅 Traditional 30431 Legacy Pines Drive Spring, TX 77386 $260,000 2,708 平方英尺. 6,098 平方英尺. $96
2018-01-11 独户式别墅 Traditional 35 Village Knoll Place Spring, TX 77381 $295,000 1,750 平方英尺. 7,405 平方英尺. $169
2018-01-11 独户式别墅 Traditional 23306 Preserve View Circle Spring, TX 77389 $399,990 3,757 平方英尺. 7,405 平方英尺. $106
2018-01-11 独户式别墅 Traditional 2814 Crescent Star Road Spring, TX 77388 $149,900 1,194 平方英尺. 2,178 平方英尺. $126
2018-01-11 独户式别墅 Traditional 2907 Aspen Fair Trail Spring, TX 77389 $175,000 2,096 平方英尺. 7,841 平方英尺. $83
2018-01-10 独户式别墅 Traditional 18707 Tomato Street Spring, TX 77379 $194,900 2,448 平方英尺. 15,246 平方英尺. $80
2018-01-10 独户式别墅 Contemporary/Modern; Traditional 3707 Falun Court Spring, TX 77386 $999,000 5,086 平方英尺. 43,996 平方英尺. $196
2018-01-10 独户式别墅 Contemporary/Modern; Traditional 2507 Spring Day Court Spring, TX 77373 $165,000 1,308 平方英尺. 6,970 平方英尺. $126
2018-01-10 独户式别墅 Traditional 6810 Auburn Sands Drive Spring, TX 77389 $535,000 4,963 平方英尺. 10,454 平方英尺. $108
2018-01-10 独户式别墅 Traditional 1419 Reno Ridge Spring, TX 77373 $168,900 1,671 平方英尺. $101
2018-01-10 独户式别墅 Traditional 1438 Reno Ridge Spring, TX 77373 $199,990 1,866 平方英尺. $107
2018-01-10 独户式别墅 Contemporary/Modern 24623 Wilderness Road Spring, TX 77380 $69,900 1,442 平方英尺. 9,148 平方英尺. $48
2018-01-10 独户式别墅 Traditional 2 Eagle Rise Place Spring, TX 77382 $529,000 3,288 平方英尺. 11,761 平方英尺. $161
2018-01-10 独户式别墅 Traditional 1447 Reno Ridge Spring, TX 77373 $203,990 2,140 平方英尺. $95
2018-01-10 独户式别墅 Traditional 28 Mellow Leaf Court Spring, TX 77381 $512,700 3,473 平方英尺. 13,504 平方英尺. $148
2018-01-10 独户式别墅 Traditional 29911 Legends Village Circle Spring, TX 77386 $289,900 3,027 平方英尺. 8,712 平方英尺. $96
2018-01-10 独户式别墅 Traditional 21023 La Arbre Lane Spring, TX 77388 $205,000 2,043 平方英尺. 6,970 平方英尺. $100
2018-01-10 独户式别墅 Traditional; Victorian 3526 Fir Forest Drive Spring, TX 77388 $209,900 2,260 平方英尺. 8,276 平方英尺. $93
2018-01-10 独户式别墅 Traditional 10 Oakley Downs Place Spring, TX 77382 $629,000 3,684 平方英尺. 12,197 平方英尺. $171
2018-01-10 独户式别墅 Traditional 31707 Summit Springs Lane Spring, TX 77386 $264,700 2,651 平方英尺. 6,098 平方英尺. $100
2018-01-10 独户式别墅 Traditional 5103 Binion Lane Spring, TX 77389 $240,000 1,960 平方英尺. $122
2018-01-10 独户式别墅 Traditional 5823 Desert Oak Way Spring, TX 77379 $379,000 4,187 平方英尺. 11,326 平方英尺. $91
2018-01-10 独户式别墅 Traditional 24518 Harness Path Court Spring, TX 77373 $275,000 2,828 平方英尺. 11,761 平方英尺. $97
2018-01-10 独户式别墅 Traditional 20011 Cypresswood Estates Run Spring, TX 77373 $159,000 2,010 平方英尺. 8,712 平方英尺. $79
2018-01-10 独户式别墅 Contemporary/Modern; Traditional 24023 Kingbriar Dr Spring, TX 77373 $195,000 2,128 平方英尺. 6,970 平方英尺. $92
2018-01-10 独户式别墅 Traditional 4414 Summer Mountain Trail Spring, TX 77388 $313,080 1,975 平方英尺. $159
2018-01-10 独户式别墅 Traditional 4446 Summer Mountain Trail Spring, TX 77388 $319,790 1,975 平方英尺. $162
2018-01-10 独户式别墅 Traditional 4403 Spinks Creek Lane Spring, TX 77388 $129,000 1,754 平方英尺. 6,970 平方英尺. $74
2018-01-10 独户式别墅 Traditional 1392 Havelock Drive Spring, TX 77386 $205,400 1,878 平方英尺. 7,841 平方英尺. $109
2018-01-10 独户式别墅 Traditional 22910 Canyon Lake Drive Spring, TX 77373 $130,000 1,656 平方英尺. 8,712 平方英尺. $78
2018-01-10 独户式别墅 Traditional 21227 Fernhollow Lane Spring, TX 77388 $159,000 1,622 平方英尺. 6,970 平方英尺. $98
2018-01-10 独户式别墅 Ranch 4006 Reynaldo Drive Spring, TX 77373 $130,000 1,250 平方英尺. 7,405 平方英尺. $104
2018-01-09 独户式别墅 Contemporary/Modern; Mediterranean 7410 Place Vendome Spring, TX 77379 $419,000 3,865 平方英尺. 7,841 平方英尺. $108
2018-01-09 独户式别墅 Traditional 24606 Wilderness Road Spring, TX 77380 $135,000 1,500 平方英尺. 23,958 平方英尺. $90
2018-01-09 独户式别墅 Traditional 16410 York Minster Drive Spring, TX 77379 $264,900 2,448 平方英尺. 13,504 平方英尺. $108
2018-01-09 独户式别墅 Ranch 24002 Richglen Court Spring, TX 77389 $289,000 2,106 平方英尺. 7,405 平方英尺. $137
2018-01-09 独户式别墅 Traditional 10 Fawnmist Place Spring, TX 77381 $649,000 3,687 平方英尺. 13,068 平方英尺. $176
2018-01-09 独户式别墅 Traditional 11 Player Pond Place Spring, TX 77382 $1,825,000 7,782 平方英尺. 41,818 平方英尺. $235
2018-01-09 独户式别墅 Traditional 261 Palomino Court Spring, TX 77382 $389,000 2,128 平方英尺. 10,890 平方英尺. $183
2018-01-09 独户式别墅 Traditional 5111 Durham Knoll Lane Spring, TX 77389 $329,900 3,236 平方英尺. 6,098 平方英尺. $102
2018-01-09 独户式别墅 Other Style 10 Fremont Ridge Loop Spring, TX 77389 $875,000 6,057 平方英尺. 11,761 平方英尺. $144
2018-01-09 独户式别墅 Traditional 9023 Memorial Creek Drive Spring, TX 77379 $270,000 3,502 平方英尺. 7,841 平方英尺. $77
2018-01-09 独户式别墅 Traditional 2546 Marufo Vega Drive Spring, TX 77386 $360,000 3,544 平方英尺. 7,841 平方英尺. $102
2018-01-09 独户式别墅 Traditional 2106 Whitelaw Drive Spring, TX 77386 $175,000 1,567 平方英尺. 7,405 平方英尺. $112
2018-01-09 独户式别墅 Traditional 718 Clady Drive Spring, TX 77386 $275,000 2,960 平方英尺. 8,712 平方英尺. $93
2018-01-09 独户式别墅 Traditional 22014 Meandering Springs Drive Spring, TX 77389 $399,995 2,812 平方英尺. $142
2018-01-09 独户式别墅 Traditional 3932 Pinecrest Peak Drive Spring, TX 77386 $419,900 3,257 平方英尺. 7,841 平方英尺. $129
2018-01-09 独户式别墅 Traditional; Victorian 3610 Chapel Square Drive Spring, TX 77388 $205,000 2,253 平方英尺. 7,841 平方英尺. $91
2018-01-09 独户式别墅 Traditional 1606 Claytons Bend Court Spring, TX 77386 $355,000 3,114 平方英尺. 8,276 平方英尺. $114
2018-01-09 独户式别墅 Mediterranean 50 Fremont Ridge Loop Spring, TX 77389 $1,250,000 6,523 平方英尺. 15,682 平方英尺. $192
2018-01-09 独户式别墅 Traditional 28326 Madelin Manor Lane Spring, TX 77386 $335,000 2,518 平方英尺. 7,841 平方英尺. $133
2018-01-09 独户式别墅 Traditional 29526 Usonia Drive Spring, TX 77386 $289,900 3,116 平方英尺. 6,098 平方英尺. $93
2018-01-09 独户式别墅 Traditional 5314 Sweetwind Lane Spring, TX 77373 $118,500 1,699 平方英尺. 8,712 平方英尺. $70
2018-01-09 独户式别墅 Traditional 18011 Mantana Drive Spring, TX 77388 $229,000 2,208 平方英尺. 9,148 平方英尺. $104
2018-01-09 独户式别墅 Traditional 207 Oarwood Place Spring, TX 77389 $525,000 3,334 平方英尺. 10,019 平方英尺. $157
2018-01-08 独户式别墅 Contemporary/Modern 19103 Rim Trail Spring, TX 77388 $242,000 3,326 平方英尺. 8,276 平方英尺. $73
2018-01-08 独户式别墅 Contemporary/Modern 6335 Sampras Ace Court Spring, TX 77379 $249,000 2,415 平方英尺. 8,712 平方英尺. $103
2018-01-08 独户式别墅 Traditional 17311 Rustington Drive Spring, TX 77379 $315,000 3,944 平方英尺. 19,166 平方英尺. $80
2018-01-08 独户式别墅 Traditional 3603 Willie Way Spring, TX 77380 $75,000 1,532 平方英尺. 8,712 平方英尺. $49
2018-01-08 独户式别墅 Ranch 23127 Berry Pine Drive Spring, TX 77373 $139,900 1,505 平方英尺. 8,276 平方英尺. $93
2018-01-08 独户式别墅 Traditional 20022 Rosswood Lane Spring, TX 77388 $250,000 2,876 平方英尺. 10,019 平方英尺. $87
2018-01-08 独户式别墅 Traditional 31723 Summit Springs Spring, TX 77386 $265,000 2,425 平方英尺. 6,098 平方英尺. $109
2018-01-08 独户式别墅 Traditional 25507 Holly Springs Place Spring, TX 77373 $284,999 3,768 平方英尺. 9,148 平方英尺. $76
2018-01-08 独户式别墅 Traditional 22635 Cutter Mill Drive Spring, TX 77389 $359,999 3,120 平方英尺. 6,098 平方英尺. $115
2018-01-08 独户式别墅 Traditional 242 Rockwell Park Boulevard Spring, TX 77389 $779,000 3,522 平方英尺. 8,276 平方英尺. $221
2018-01-08 独户式别墅 Traditional 28315 Whispering Maple Way Spring, TX 77386 $975,000 6,838 平方英尺. 48,352 平方英尺. $143
2018-01-08 独户式别墅 Traditional 83 Bacopa Drive Spring, TX 77389 $749,000 4,558 平方英尺. 12,632 平方英尺. $164
2018-01-08 独户式别墅 Split Level; Traditional 55 Hickory Oak Drive Spring, TX 77381 $250,000 2,212 平方英尺. 8,712 平方英尺. $113
2018-01-08 独户式别墅 Traditional 17831 Black Alder Landing Spring, TX 77379 $446,500 3,855 平方英尺. $116
2018-01-08 独户式别墅 Traditional 9626 Lace Flower Drive Spring, TX 77379 $440,296 2,498 平方英尺. $176
2018-01-08 独户式别墅 Traditional 7607 Morgans Pond Court Spring, TX 77389 $1,550,000 5,771 平方英尺. 20,473 平方英尺. $269
2018-01-07 独户式别墅 Traditional 5506 Roserock Lane Spring, TX 77379 $160,000 2,003 平方英尺. 6,098 平方英尺. $80
2018-01-07 独户式别墅 Traditional 9530 Arcade Drive Spring, TX 77379 $314,000 3,282 平方英尺. 8,712 平方英尺. $96
2018-01-07 独户式别墅 Contemporary/Modern 27235 Jessica Hills Lane Spring, TX 77386 $349,900 3,282 平方英尺. 8,712 平方英尺. $107
2018-01-07 独户式别墅 Traditional 6 Tall Sky Place Spring, TX 77381 $329,000 2,226 平方英尺. 7,405 平方英尺. $148
2018-01-07 独户式别墅 Traditional 29627 Legends Bend Lane Spring, TX 77386 $165,000 1,884 平方英尺. 5,663 平方英尺. $88
2018-01-06 独户式别墅 Traditional 1915 Medway Drive Spring, TX 77386 $219,900 2,006 平方英尺. 8,712 平方英尺. $110
2018-01-06 独户式别墅 Traditional 2627 Fort Settlement Trail Spring, TX 77373 $205,000 2,195 平方英尺. 7,841 平方英尺. $93
2018-01-06 独户式别墅 Traditional 6226 Stone Trail Lane Spring, TX 77379 $329,000 3,000 平方英尺. 8,276 平方英尺. $110
2018-01-06 独户式别墅 Traditional 21614 Falvel Misty Drive Spring, TX 77388 $179,000 1,986 平方英尺. 5,663 平方英尺. $90
2018-01-06 独户式别墅 Traditional 6122 Flagg Ranch Drive Spring, TX 77388 $219,900 2,405 平方英尺. 5,663 平方英尺. $91
2018-01-06 独户式别墅 Traditional 28204 Green Meadow Way Spring, TX 77386 $489,059 3,650 平方英尺. $134
2018-01-06 独户式别墅 Traditional 18319 Trace Forest Drive Spring, TX 77379 $329,900 3,820 平方英尺. 9,583 平方英尺. $86
2018-01-06 独户式别墅 Traditional 9214 Benwick Street Spring, TX 77379 $134,000 1,403 平方英尺. 7,405 平方英尺. $96
2018-01-06 独户式别墅 Traditional 8326 Domer Drive Spring, TX 77379 $230,000 2,383 平方英尺. 10,019 平方英尺. $97
2018-01-06 独户式别墅 Traditional 19918 Astilbe Ct Spring, TX 77379 $320,000 3,273 平方英尺. 10,019 平方英尺. $98
2018-01-06 独户式别墅 Traditional 5610 Capella Park Drive Spring, TX 77379 $259,000 2,764 平方英尺. 8,276 平方英尺. $94
2018-01-06 独户式别墅 Traditional 3918 Mossy Place Lane Spring, TX 77388 $124,900 1,004 平方英尺. 2,614 平方英尺. $124
2018-01-06 独户式别墅 Traditional 5403 Claymore Meadow Lane Spring, TX 77389 $269,000 1,908 平方英尺. 7,841 平方英尺. $141
2018-01-06 独户式别墅 Traditional 36 Whistlers Walk Place Spring, TX 77381 $185,000 1,252 平方英尺. 8,276 平方英尺. $148
2018-01-06 独户式别墅 Traditional 31107 Baker Lake Drive Spring, TX 77386 $224,025 2,518 平方英尺. 6,098 平方英尺. $89
2018-01-05 独户式别墅 Traditional 29542 Westhope Drive Spring, TX 77386 $300,000 3,016 平方英尺. 6,970 平方英尺. $99
2018-01-05 独户式别墅 Traditional 16006 Wimbledon Champions Spring, TX 77379 $279,000 3,978 平方英尺. 10,019 平方英尺. $70
2018-01-05 独户式别墅 Traditional 18631 Minden Oaks Drive Spring, TX 77388 $345,000 3,487 平方英尺. 7,841 平方英尺. $99
2018-01-05 独户式别墅 Traditional 3726 Cypress Hill Drive Spring, TX 77388 $189,000 2,130 平方英尺. 9,148 平方英尺. $89
2018-01-05 独户式别墅 Traditional 24710 Hunters Hollow Drive Spring, TX 77380 $79,000 1,867 平方英尺. 12,197 平方英尺. $42
2018-01-05 独户式别墅 Traditional 20719 Sundance Springs Lane Spring, TX 77379 $675,000 5,039 平方英尺. 13,504 平方英尺. $134
2018-01-05 独户式别墅 Traditional 18623 Duke Lake Drive Spring, TX 77388 $374,000 3,401 平方英尺. 10,890 平方英尺. $110
2018-01-05 独户式别墅 Traditional 4418 Hirschfield Road Spring, TX 77373 $152,500 1,646 平方英尺. 6,534 平方英尺. $93
2018-01-05 独户式别墅 Ranch 6030 Rustygate Drive Spring, TX 77373 $134,900 1,444 平方英尺. 7,841 平方英尺. $93
2018-01-05 独户式别墅 Ranch 9430 Halkirk Street Spring, TX 77379 $136,000 1,788 平方英尺. 7,405 平方英尺. $76
2018-01-05 独户式别墅 Traditional 4606 Preserve Park Drive Spring, TX 77389 $285,000 2,633 平方英尺. 9,583 平方英尺. $108
2018-01-05 独户式别墅 Traditional 3902 Boden Lane Spring, TX 77386 $1,065,000 4,296 平方英尺. 44,867 平方英尺. $248
2018-01-05 独户式别墅 Contemporary/Modern; Traditional 30 Liberty Branch Spring, TX 77389 $849,000 4,752 平方英尺. 10,019 平方英尺. $179
2018-01-05 独户式别墅 Traditional 3226 Montclair Orchard Trace Spring, TX 77386 $273,765 2,612 平方英尺. $105
2018-01-05 独户式别墅 Traditional 28223 Peper Hollow Lane Spring, TX 77386 $264,900 3,149 平方英尺. $84
2018-01-05 独户式别墅 Traditional 20006 Standing Cypress Drive Spring, TX 77379 $458,000 4,202 平方英尺. 8,712 平方英尺. $109
2018-01-05 独户式别墅 Traditional 18615 Burnt Candle Drive Spring, TX 77388 $325,000 3,745 平方英尺. 11,761 平方英尺. $87
2018-01-05 独户式别墅 Traditional 3302 Legends Creek Drive Spring, TX 77386 $179,900 1,805 平方英尺. 6,970 平方英尺. $100
2018-01-05 独户式别墅 Traditional 46 Deerfoot Circle Spring, TX 77380 $199,000 1,762 平方英尺. 6,098 平方英尺. $113
2018-01-05 独户式别墅 Traditional 29829 Dovetail Bluff Lane Spring, TX 77386 $205,000 1,588 平方英尺. $129
2018-01-05 独户式别墅 Traditional 7810 Friars Court Lane Spring, TX 77379 $197,500 1,985 平方英尺. 7,841 平方英尺. $100
2018-01-05 独户式别墅 Traditional 8822 Van Allen Drive Spring, TX 77381 $474,000 3,297 平方英尺. 5,227 平方英尺. $144
2018-01-05 独户式别墅 Traditional 2530 Autumn Springs Lane Spring, TX 77373 $142,000 1,466 平方英尺. 4,792 平方英尺. $97
2018-01-05 独户式别墅 Traditional 1503 Eden Meadows Drive Spring, TX 77386 $274,000 2,582 平方英尺. 6,534 平方英尺. $106
2018-01-05 独户式别墅 Traditional 20010 Mayfair Park Lane Spring, TX 77379 $250,000 2,482 平方英尺. 7,841 平方英尺. $101
2018-01-05 独户式别墅 French 6806 Warwick Lake Lane Spring, TX 77389 $1,249,000 5,328 平方英尺. 14,375 平方英尺. $234
2018-01-05 独户式别墅 Traditional 5203 Creekland Circle Spring, TX 77389 $517,606 4,087 平方英尺. 16,117 平方英尺. $127
2018-01-05 独户式别墅 Contemporary/Modern 24702 Emerald Manor Lane Spring, TX 77389 $899,000 4,315 平方英尺. 20,909 平方英尺. $208
2018-01-05 独户式别墅 Traditional 734 Magic Oaks Drive Spring, TX 77388 $89,670 1,980 平方英尺. 9,148 平方英尺. $45
2018-01-05 独户式别墅 Traditional 18019 Mahogany Forest Drive Spring, TX 77379 $449,000 4,517 平方英尺. 21,780 平方英尺. $99
2018-01-05 独户式别墅 Traditional 2322 Fawnwood Lane Spring, TX 77386 $179,900 1,538 平方英尺. 20,038 平方英尺. $117
2018-01-04 独户式别墅 Contemporary/Modern 1422 Reno Ridge Ln Spring, TX 77373 $204,540 2,140 平方英尺. $96
2018-01-04 独户式别墅 Traditional 16711 Rugby Court Spring, TX 77379 $285,000 3,554 平方英尺. 9,583 平方英尺. $80
2018-01-04 独户式别墅 Traditional 31310 Riley Woods Court Spring, TX 77386 $380,000 3,828 平方英尺. 10,890 平方英尺. $99
2018-01-04 独户式别墅 Traditional 267 Sandpebble Drive Spring, TX 77381 $200,000 2,368 平方英尺. 7,841 平方英尺. $84
2018-01-04 独户式别墅 Ranch; Traditional 7 Regan Mead Circle Spring, TX 77382 $259,000 1,758 平方英尺. 9,148 平方英尺. $147
2018-01-04 独户式别墅 Traditional 102 Rockridge Drive Spring, TX 77381 $210,000 1,880 平方英尺. 6,970 平方英尺. $112
2018-01-04 独户式别墅 Ranch; Traditional 814 Laindon Springs Lane Spring, TX 77373 $210,000 2,154 平方英尺. 8,276 平方英尺. $97
2018-01-04 独户式别墅 Traditional 4234 Mossygate Drive Spring, TX 77373 $115,000 1,639 平方英尺. 6,534 平方英尺. $70
2018-01-04 独户式别墅 Split Level 23538 Briarcreek Boulevard Spring, TX 77373 $159,900 1,776 平方英尺. 8,276 平方英尺. $90
2018-01-04 独户式别墅 Traditional 2019 Beacon Chase Court Spring, TX 77373 $182,500 2,214 平方英尺. 5,227 平方英尺. $82
2018-01-04 独户式别墅 Traditional 6 Elfen Way Spring, TX 77382 $669,900 4,277 平方英尺. 14,810 平方英尺. $157
2018-01-04 独户式别墅 Traditional 18722 White Candle Drive Spring, TX 77388 $225,000 2,886 平方英尺. 9,583 平方英尺. $78
2018-01-04 独户式别墅 Traditional 42 Cresta Bend Place Spring, TX 77389 $600,000 3,784 平方英尺. 9,583 平方英尺. $159
2018-01-04 独户式别墅 Traditional 6311 Auburn Terrace Court Spring, TX 77389 $354,000 3,850 平方英尺. 12,197 平方英尺. $92
2018-01-04 独户式别墅 Traditional 21630 Falvel Sunset Court Spring, TX 77388 $159,900 1,454 平方英尺. 5,227 平方英尺. $110
2018-01-04 独户式别墅 Traditional 17803 English Ivy Lane Spring, TX 77379 $279,900 2,734 平方英尺. 10,454 平方英尺. $102
2018-01-04 独户式别墅 Traditional 811 Lynwood Road Spring, TX 77373 $89,000 1,792 平方英尺. 13,068 平方英尺. $50
2018-01-04 独户式别墅 Traditional 223 Tree Trunk Drive Spring, TX 77388 $108,000 2,222 平方英尺. 10,454 平方英尺. $49
2018-01-03 独户式别墅 Traditional 4911 Maurita Drive Spring, TX 77373 $128,000 1,166 平方英尺. 6,534 平方英尺. $110
2018-01-03 独户式别墅 Traditional 26710 Cypresswood Drive Spring, TX 77373 $148,000 1,440 平方英尺. 7,405 平方英尺. $103
2018-01-03 独户式别墅 Traditional 8107 Oak Moss Drive Spring, TX 77379 $259,900 2,905 平方英尺. 10,890 平方英尺. $89
2018-01-03 独户式别墅 Traditional 18615 Landrum Point Lane Spring, TX 77388 $319,000 2,632 平方英尺. 8,276 平方英尺. $121
2018-01-03 独户式别墅 Traditional 2502 Marufo Vega Drive Spring, TX 77386 $388,000 3,889 平方英尺. 7,841 平方英尺. $100
2018-01-03 独户式别墅 Traditional 19723 Village Of Bridgestone Lane Spring, TX 77379 $210,000 2,446 平方英尺. 5,663 平方英尺. $86
2018-01-03 独户式别墅 Traditional 21526 Falvel Misty Drive Spring, TX 77388 $144,737 1,590 平方英尺. 5,227 平方英尺. $91
2018-01-03 独户式别墅 Traditional 7730 Candlelight Park Spring, TX 77379 $368,975 3,129 平方英尺. 8,712 平方英尺. $118
2018-01-03 独户式别墅 Traditional 29309 Forest Floor Ln Spring, TX 77386 $196,000 1,789 平方英尺. 6,970 平方英尺. $110
2018-01-03 独户式别墅 Traditional 23246 Grand Rapids Lane Spring, TX 77373 $184,900 2,337 平方英尺. 6,534 平方英尺. $79
2018-01-03 独户式别墅 Traditional 6818 Chancellor Drive Spring, TX 77379 $215,440 2,693 平方英尺. 8,712 平方英尺. $80
2018-01-03 独户式别墅 Traditional 3511 Canyon Square Drive Spring, TX 77386 $321,500 2,768 平方英尺. 11,326 平方英尺. $116
2018-01-03 独户式别墅 Ranch; Traditional 19111 Emory Trail Spring, TX 77388 $235,000 2,352 平方英尺. 7,841 平方英尺. $100
2018-01-03 独户式别墅 Traditional 2006 Sekola Lane Spring, TX 77386 $205,000 1,999 平方英尺. 7,841 平方英尺. $103
2018-01-02 独户式别墅 Ranch 7907 Friars Court Lane Spring, TX 77379 $214,000 2,108 平方英尺. 7,841 平方英尺. $102
2018-01-02 独户式别墅 Traditional 6839 Ten Curves Road Spring, TX 77379 $199,900 2,062 平方英尺. 7,841 平方英尺. $97
2018-01-02 独户式别墅 Traditional 11 Rockwell Square Place Spring, TX 77389 $590,000 3,347 平方英尺. 9,148 平方英尺. $176
2018-01-02 独户式别墅 Traditional 24006 Bridge Way Spring, TX 77389 $348,500 3,191 平方英尺. 11,326 平方英尺. $109
2018-01-02 独户式别墅 Traditional 3539 Red Meadows Drive Spring, TX 77386 $149,900 1,480 平方英尺. 4,356 平方英尺. $101
2018-01-02 独户式别墅 Mediterranean 28207 Bentgrass Run Lane Spring, TX 77386 $569,000 5,165 平方英尺. 10,454 平方英尺. $110
2018-01-02 独户式别墅 French 58 Gatewood Springs Drive Spring, TX 77381 $1,649,000 5,437 平方英尺. 12,632 平方英尺. $303
2018-01-02 独户式别墅 Traditional 2602 Streeter Lane Spring, TX 77388 $850,000 5,378 平方英尺. 14,810 平方英尺. $158
2018-01-02 独户式别墅 Traditional 1911 Coverlea Court Spring, TX 77388 $219,900 2,942 平方英尺. 5,663 平方英尺. $75
2018-01-02 独户式别墅 Traditional 28602 Lockeridge Farms Drive Spring, TX 77386 $223,900 1,949 平方英尺. 5,663 平方英尺. $115
2018-01-02 独户式别墅 Traditional 4146 Falvel Shadow Creek Drive Spring, TX 77388 $239,990 2,478 平方英尺. 6,098 平方英尺. $97
2018-01-02 独户式别墅 Traditional 2831 Hadley Springs Lane Spring, TX 77386 $399,000 3,229 平方英尺. 13,939 平方英尺. $124
2018-01-02 独户式别墅 Mediterranean 9703 Chipstead Circle Spring, TX 77379 $385,000 4,428 平方英尺. 9,583 平方英尺. $87
2018-01-02 独户式别墅 Traditional 6702 Paddock Run Spring, TX 77389 $445,000 4,264 平方英尺. 13,504 平方英尺. $104
2018-01-02 独户式别墅 Traditional 27407 Gatlin Lane Spring, TX 77386 $217,500 2,030 平方英尺. 5,227 平方英尺. $107
2018-01-02 独户式别墅 Traditional 5818 Evening Shadows Lane Spring, TX 77373 $152,000 1,914 平方英尺. 6,534 平方英尺. $79
2018-01-02 独户式别墅 Traditional 15926 Stornoway Drive Spring, TX 77379 $829,900 6,824 平方英尺. 17,424 平方英尺. $122
2018-01-01 独户式别墅 Traditional 3306 Candlelon Spring, TX 77388 $310,000 3,475 平方英尺. 9,148 平方英尺. $89
2018-01-01 独户式别墅 Mediterranean 11 Maroon Creek Court Spring, TX 77389 $1,380,000 5,681 平方英尺. 18,731 平方英尺. $243
2017-12-31 独户式别墅 Traditional 6506 Wilding Wimbledon Court Spring, TX 77379 $299,850 4,017 平方英尺. 8,712 平方英尺. $75
2017-12-31 独户式别墅 Traditional 27423 Rebecca Field Lane Spring, TX 77386 $215,000 2,021 平方英尺. 6,534 平方英尺. $106
2017-12-31 独户式别墅 Traditional 5002 Tealgate Drive Spring, TX 77373 $150,000 1,798 平方英尺. 6,970 平方英尺. $83
2017-12-31 独户式别墅 Traditional 23315 Preserve Glen Spring, TX 77389 $465,000 4,122 平方英尺. 9,583 平方英尺. $113
2017-12-30 独户式别墅 Traditional 5403 Westbrook Oaks Way Spring, TX 77379 $410,000 4,368 平方英尺. 13,068 平方英尺. $94
2017-12-30 独户式别墅 Traditional 29566 Clover Shore Dr Spring, TX 77386 $273,038 2,374 平方英尺. $115
2017-12-30 独户式别墅 Traditional 29506 Water Willow Trace Dr Spring, TX 77386 $274,420 2,531 平方英尺. $108
2017-12-30 独户式别墅 Traditional 30714 Imperial Legends Drive Spring, TX 77386 $525,000 4,278 平方英尺. 43,996 平方英尺. $123
2017-12-30 独户式别墅 Ranch 19611 Waverly Park Lane Spring, TX 77379 $164,999 1,503 平方英尺. 6,970 平方英尺. $110
2017-12-30 独户式别墅 Contemporary/Modern 21915 Gosling Cedar Place Spring, TX 77388 $190,000 2,066 平方英尺. 6,098 平方英尺. $92
2017-12-30 独户式别墅 Traditional 3010 Lexanne Court Spring, TX 77388 $205,000 2,098 平方英尺. 6,098 平方英尺. $98
2017-12-30 独户式别墅 Traditional 30203 Aldine Westfield Road Spring, TX 77386 $352,000 2,640 平方英尺. 43,996 平方英尺. $133
2017-12-30 独户式别墅 Traditional 31011 Purdue Park Lane Spring, TX 77386 $269,000 2,866 平方英尺. 10,454 平方英尺. $94
2017-12-30 独户式别墅 Traditional 2802 Lexington Park Drive Spring, TX 77373 $220,000 2,175 平方英尺. 6,098 平方英尺. $101
2017-12-30 独户式别墅 Traditional 2010 Pincher Creek Drive Spring, TX 77386 $224,900 2,290 平方英尺. 7,405 平方英尺. $98
2017-12-29 独户式别墅 Traditional 22703 Dairy Gate Drive Spring, TX 77373 $99,950 1,292 平方英尺. 6,098 平方英尺. $77
2017-12-29 独户式别墅 Traditional 6819 Laurel Maple Court Spring, TX 77379 $279,900 2,348 平方英尺. 8,712 平方英尺. $119
2017-12-29 独户式别墅 Ranch 25410 Lancewood Drive Spring, TX 77373 $169,900 1,929 平方英尺. 12,197 平方英尺. $88
2017-12-29 独户式别墅 Traditional 2606 Spring Drive Spring, TX 77373 $153,900 1,741 平方英尺. 9,583 平方英尺. $88
2017-12-29 独户式别墅 Traditional 23007 Naples Drive Spring, TX 77373 $119,400 1,129 平方英尺. 6,534 平方英尺. $106
2017-12-29 独户式别墅 Traditional 29015 Sedgefield Street Spring, TX 77386 $138,900 1,423 平方英尺. 6,534 平方英尺. $98
2017-12-29 独户式别墅 Traditional 23815 Spring Briar Lane Spring, TX 77373 $144,900 1,644 平方英尺. 7,841 平方英尺. $88
2017-12-29 独户式别墅 Traditional 24119 Lone Elm Drive Spring, TX 77373 $147,900 1,711 平方英尺. 6,970 平方英尺. $86
2017-12-29 独户式别墅 Traditional 29002 Raestone Street Spring, TX 77386 $149,500 1,727 平方英尺. 7,405 平方英尺. $87
2017-12-29 独户式别墅 Traditional 2517 Leichester Drive Spring, TX 77386 $149,900 1,679 平方英尺. 7,405 平方英尺. $89
2017-12-29 独户式别墅 Traditional 23723 Farm Hill Road Spring, TX 77373 $145,900 1,734 平方英尺. 7,405 平方英尺. $84
2017-12-29 独户式别墅 Traditional 29307 Brookchase Drive Spring, TX 77386 $147,500 1,640 平方英尺. 7,841 平方英尺. $90
2017-12-29 独户式别墅 Traditional 43 Golden Sunset Circle Spring, TX 77381 $640,000 3,876 平方英尺. 15,246 平方英尺. $165
2017-12-29 独户式别墅 Traditional 23843 Beaverwood Drive Spring, TX 77373 $145,900 1,557 平方英尺. 7,405 平方英尺. $94
2017-12-28 独户式别墅 Traditional 22503 Sleepygate Drive Spring, TX 77373 $149,000 1,668 平方英尺. 10,019 平方英尺. $89
2017-12-28 独户式别墅 Traditional 7938 Wooded Way Drive Spring, TX 77389 $475,000 4,187 平方英尺. 20,038 平方英尺. $113
2017-12-28 独户式别墅 Traditional 3807 Bayport Court Spring, TX 77386 $835,000 5,490 平方英尺. 43,560 平方英尺. $152
2017-12-28 独户式别墅 Mediterranean 34 Norlund Way Spring, TX 77382 $2,650,000 7,202 平方英尺. 43,996 平方英尺. $368
2017-12-28 独户式别墅 Traditional 9711 Sotherloch Lake Drive Spring, TX 77379 $480,000 4,238 平方英尺. 11,761 平方英尺. $113
2017-12-28 独户式别墅 Traditional 21415 Delridge Drive Spring, TX 77388 $230,000 2,370 平方英尺. 7,405 平方英尺. $97
2017-12-28 独户式别墅 Traditional 3533 Imperial Grove Lane Spring, TX 77386 $308,840 2,413 平方英尺. $128
2017-12-28 独户式别墅 Traditional 3124 Dunsmore Manor Crt Spring, TX 77386 $227,000 1,550 平方英尺. $146
2017-12-28 独户式别墅 Traditional 3230 Montclair Orchard Trace Spring, TX 77386 $225,000 1,562 平方英尺. $144
2017-12-28 独户式别墅 Traditional 1947 Katlyn Lane Spring, TX 77386 $220,000 2,584 平方英尺. 7,405 平方英尺. $85
2017-12-27 独户式别墅 Traditional 25502 Old Carriage Lane Spring, TX 77373 $189,000 2,166 平方英尺. 9,148 平方英尺. $87
2017-12-27 独户式别墅 Traditional 2334 Turnbury Elm Court Spring, TX 77386 $188,200 2,402 平方英尺. 4,792 平方英尺. $78
2017-12-27 独户式别墅 Traditional 4442 Summer Mountain Trail Spring, TX 77388 $253,565 1,975 平方英尺. 8,276 平方英尺. $128
2017-12-27 独户式别墅 Traditional 4458 Summer Mountain Trail Spring, TX 77388 $256,740 1,875 平方英尺. 8,276 平方英尺. $137
2017-12-27 独户式别墅 Traditional 19 Fraiser Fir Place Spring, TX 77389 $319,000 2,559 平方英尺. 7,841 平方英尺. $125
2017-12-27 独户式别墅 Traditional 21734 Colter Stone Drive Spring, TX 77388 $193,000 1,932 平方英尺. 6,098 平方英尺. $100
2017-12-27 独户式别墅 Traditional 4014 Fitzwater Drive Spring, TX 77373 $122,000 1,384 平方英尺. 6,534 平方英尺. $88
2017-12-27 独户式别墅 Traditional 6322 Sampras Ace Court Spring, TX 77379 $140,000 2,484 平方英尺. 9,148 平方英尺. $56
2017-12-27 独户式别墅 Ranch 9614 Eday Dr Spring, TX 77379 $139,500
2017-12-26 独户式别墅 Traditional 5323 Brookway Willow Drive Spring, TX 77379 $304,995 3,577 平方英尺. 7,841 平方英尺. $85
2017-12-26 独户式别墅 Traditional 1514 Andrew Chase Ln Lane Spring, TX 77386 $309,999 2,656 平方英尺. 11,761 平方英尺. $117
2017-12-26 独户式别墅 Ranch 20003 Cypresswood Glen Spring, TX 77373 $160,000 1,612 平方英尺. 6,970 平方英尺. $99
2017-12-26 独户式别墅 Traditional 20835 Louetta Oak Drive Spring, TX 77388 $221,000 2,285 平方英尺. 12,632 平方英尺. $97
2017-12-26 独户式别墅 Traditional 5007 Beaubridge Lane Spring, TX 77379 $175,000 1,669 平方英尺. 8,276 平方英尺. $105
2017-12-26 独户式别墅 Mediterranean 2511 Hendricks Lakes Drive Spring, TX 77388 $550,000 3,996 平方英尺. 10,019 平方英尺. $138
2017-12-26 独户式别墅 Traditional 20703 Louetta Oak Drive Spring, TX 77388 $279,000 3,026 平方英尺. 7,841 平方英尺. $92
2017-12-25 独户式别墅 Traditional 21343 Bella Mountain Drive Spring, TX 77379 $175,000 1,934 平方英尺. 5,663 平方英尺. $90
2017-12-24 独户式别墅 Traditional 20102 Elaine Rose Court Spring, TX 77379 $539,000 4,334 平方英尺. 15,246 平方英尺. $124
2017-12-24 独户式别墅 Traditional 2830 Redwick Drive Spring, TX 77388 $375,000 4,267 平方英尺. 9,148 平方英尺. $88
2017-12-24 独户式别墅 Traditional 6619 Seaton Valley Drive Spring, TX 77379 $214,900 2,403 平方英尺. 9,148 平方英尺. $89
2017-12-24 独户式别墅 Contemporary/Modern 3724 Nutwood Lane Spring, TX 77389 $175,000 2,000 平方英尺. 6,534 平方英尺. $88
2017-12-24 独户式别墅 Ranch 16203 Shrewsbury Circle Spring, TX 77379 $149,900 2,804 平方英尺. 14,375 平方英尺. $53
2017-12-23 独户式别墅 Traditional 403 Presswood Drive Spring, TX 77386 $183,900 1,753 平方英尺. 19,166 平方英尺. $105
2017-12-23 独户式别墅 Traditional 5706 Capella Park Drive Spring, TX 77379 $330,000 2,408 平方英尺. 8,276 平方英尺. $137
2017-12-23 独户式别墅 Traditional 31258 Shady Arbor Ln Lane Spring, TX 77386 $470,000 4,115 平方英尺. 11,761 平方英尺. $114
2017-12-23 独户式别墅 Traditional 25203 Butterwick Drive Spring, TX 77389 $199,786 2,334 平方英尺. 9,148 平方英尺. $86
2017-12-23 独户式别墅 Traditional 2442 Fox River Lane Spring, TX 77386 $160,000 1,735 平方英尺. 5,663 平方英尺. $92
2017-12-23 独户式别墅 Traditional 9334 Sotherloch Lake Drive Spring, TX 77379 $399,000 3,717 平方英尺. 9,148 平方英尺. $107
2017-12-23 独户式别墅 Traditional 23202 Kobi Park Court Spring, TX 77373 $260,000 2,782 平方英尺. 7,841 平方英尺. $93
2017-12-22 独户式别墅 Traditional 907 Colewick Court Spring, TX 77373 $174,900 2,159 平方英尺. 5,663 平方英尺. $81
2017-12-22 独户式别墅 Traditional 5307 Losoya Court Spring, TX 77388 $199,000 1,980 平方英尺. 7,405 平方英尺. $101
2017-12-22 独户式别墅 Traditional 4515 Nueces River Loop Spring, TX 77386 $139,000 1,608 平方英尺. 8,276 平方英尺. $86
2017-12-22 独户式别墅 Traditional 21330 Reed Creek Lane Spring, TX 77388 $165,000 1,998 平方英尺. 6,534 平方英尺. $83
2017-12-22 独户式别墅 Traditional 3423 Deer Valley Drive Spring, TX 77373 $115,000 1,671 平方英尺. 7,841 平方英尺. $69
2017-12-22 独户式别墅 Traditional 6023 Fairway Manor Lane Spring, TX 77373 $159,000 2,873 平方英尺. 8,712 平方英尺. $55
2017-12-22 独户式别墅 Traditional 1318 Richlawn Drive Spring, TX 77379 $367,000 3,989 平方英尺. 10,019 平方英尺. $92
2017-12-21 独户式别墅 Traditional 3334 Keygate Drive Spring, TX 77388 $180,000 1,954 平方英尺. 6,970 平方英尺. $92
2017-12-21 独户式别墅 Traditional 2647 Elm Crossing Trail Spring, TX 77386 $203,000 2,432 平方英尺. 4,792 平方英尺. $83
2017-12-21 独户式别墅 Traditional 5623 Roserock Lane Spring, TX 77379 $179,900 1,856 平方英尺. 6,098 平方英尺. $97
2017-12-21 独户式别墅 Traditional 24414 Creekview Drive Spring, TX 77389 $409,900 3,489 平方英尺. 17,860 平方英尺. $117
2017-12-21 独户式别墅 Traditional 6311 Trailway Lane Spring, TX 77379 $197,500 2,166 平方英尺. 11,761 平方英尺. $91
2017-12-21 独户式别墅 Traditional 6 Snowbell Place Spring, TX 77381 $479,900 3,170 平方英尺. 12,632 平方英尺. $151
2017-12-21 独户式别墅 Contemporary/Modern 29 High Oaks Circle Spring, TX 77380 $209,900 1,672 平方英尺. 6,970 平方英尺. $126
2017-12-21 独户式别墅 Traditional 106 Cobble Hill Place Spring, TX 77381 $169,900 1,295 平方英尺. 6,098 平方英尺. $131
2017-12-20 独户式别墅 Ranch 6107 Northway Drive Spring, TX 77389 $160,000 2,080 平方英尺. 17,860 平方英尺. $77
2017-12-20 独户式别墅 Traditional 7062 Windy Pines Drive Spring, TX 77379 $152,000 1,923 平方英尺. 8,276 平方英尺. $79
2017-12-20 独户式别墅 Traditional 31528 Timber Grove Lane Spring, TX 77386 $318,540 2,413 平方英尺. $132
2017-12-20 独户式别墅 Traditional 4335 Umber Shadow Drive Spring, TX 77386 $269,140 2,649 平方英尺. $102
2017-12-20 独户式别墅 Traditional 31532 Timber Grove Lane Spring, TX 77386 $270,040 2,047 平方英尺. $132
2017-12-20 独户式别墅 Traditional 4550 New Country Drive Spring, TX 77386 $291,715 2,620 平方英尺. $111
2017-12-20 独户式别墅 Traditional 3529 Imperial Cove Court Spring, TX 77386 $294,190 2,419 平方英尺. $122
2017-12-20 独户式别墅 Traditional 4558 New Country Drive Spring, TX 77386 $300,340 2,713 平方英尺. $111
2017-12-20 独户式别墅 Contemporary/Modern 2907 Beacon Grove Street Spring, TX 77389 $149,900 1,150 平方英尺. 6,534 平方英尺. $130
2017-12-20 独户式别墅 Traditional 4414 Lone Alcove Drive Spring, TX 77386 $204,140 1,424 平方英尺. $143
2017-12-20 独户式别墅 Traditional 4346 Umber Shadow Drive Spring, TX 77386 $217,440 1,568 平方英尺. $139
2017-12-20 独户式别墅 Traditional 4568 New Country Drive Spring, TX 77386 $249,265 1,857 平方英尺. $134
2017-12-20 独户式别墅 Traditional 1102 Bekonscot Drive Spring, TX 77379 $372,900 3,459 平方英尺. 7,841 平方英尺. $108
2017-12-20 独户式别墅 Traditional 27911 Geele Drive Spring, TX 77386 $315,990 2,636 平方英尺. 6,098 平方英尺. $120
2017-12-20 独户式别墅 Traditional 11 Greenbud Court Spring, TX 77380 $219,900 1,517 平方英尺. 6,534 平方英尺. $145
2017-12-20 独户式别墅 Traditional 21526 Karpathos Lane Spring, TX 77388 $146,900 1,936 平方英尺. 5,227 平方英尺. $76
2017-12-20 独户式别墅 Ranch; Traditional 23011 Mulberry Tree Trail Spring, TX 77389 $388,070 3,168 平方英尺. 11,326 平方英尺. $122
2017-12-20 独户式别墅 Ranch; Traditional 5015 Gold Lantana Trail Spring, TX 77389 $418,700 3,168 平方英尺. 9,583 平方英尺. $132
2017-12-20 独户式别墅 Ranch; Traditional 23002 Southern Brook Trail Spring, TX 77389 $376,183 2,582 平方英尺. 14,810 平方英尺. $146
2017-12-20 独户式别墅 Traditional 23003 Mulberry Tree Lane Spring, TX 77389 $411,420 3,465 平方英尺. 12,197 平方英尺. $119
2017-12-20 独户式别墅 Ranch 3203 Greenham Court Spring, TX 77388 $159,900 1,654 平方英尺. 9,148 平方英尺. $97
2017-12-20 独户式别墅 Ranch; Traditional 5019 Gold Lantana Trail Spring, TX 77389 $362,740 2,716 平方英尺. 9,148 平方英尺. $134
2017-12-20 独户式别墅 Traditional 24006 Augusta Falls Lane Spring, TX 77389 $269,900 2,175 平方英尺. 7,405 平方英尺. $124
2017-12-20 独户式别墅 Traditional 25407 Elm Green Street Spring, TX 77373 $134,000 1,843 平方英尺. 12,197 平方英尺. $73
2017-12-19 独户式别墅 Traditional 22918 Cabanna Road Spring, TX 77389 $119,900 1,075 平方英尺. 7,405 平方英尺. $112
2017-12-19 独户式别墅 Ranch 1514 Plum Creek Drive Spring, TX 77386 $175,000 2,599 平方英尺. 64,469 平方英尺. $67
2017-12-19 独户式别墅 Traditional 25018 Karacabey Court Spring, TX 77389 $497,990 2,976 平方英尺. 10,890 平方英尺. $167
2017-12-19 独户式别墅 Traditional 24035 Smokeygate Court Spring, TX 77373 $219,500 2,301 平方英尺. 6,098 平方英尺. $95
2017-12-19 独户式别墅 Traditional 707 Cypresswood Shadows Spring, TX 77373 $227,000 2,994 平方英尺. 6,534 平方英尺. $76
2017-12-19 独户式别墅 Traditional 27907 Geele Drive Spring, TX 77386 $289,990 1,967 平方英尺. 6,098 平方英尺. $147
2017-12-19 独户式别墅 Traditional 4612 Autumn Morning Drive Spring, TX 77386 $304,990 2,170 平方英尺. 6,970 平方英尺. $141
2017-12-19 独户式别墅 Traditional 2426 Spring Lily Court Spring, TX 77373 $199,975 2,537 平方英尺. 5,663 平方英尺. $79
2017-12-19 独户式别墅 Other Style 19428 Doerre Road Spring, TX 77379 $275,000 2,876 平方英尺. 43,560 平方英尺. $96
2017-12-19 独户式别墅 Traditional 6515 Pine Reserve Drive Spring, TX 77389 $368,000 3,445 平方英尺. 10,019 平方英尺. $107
2017-12-18 独户式别墅 Traditional 19919 Ransten Lane Spring, TX 77379 $243,888 2,461 平方英尺. 7,405 平方英尺. $99
2017-12-18 独户式别墅 Traditional 31577 Ember Trail Lane Spring, TX 77386 $315,000 3,288 平方英尺. 9,148 平方英尺. $96
2017-12-18 独户式别墅 Traditional 134 Crystal Canyon Circle Spring, TX 77389 $740,000 4,151 平方英尺. 8,712 平方英尺. $178
2017-12-18 独户式别墅 Traditional 21102 April Meadow Spring, TX 77379 $329,990 2,714 平方英尺. 11,326 平方英尺. $122
2017-12-18 独户式别墅 Traditional 20618 Spring Aspen Lane Spring, TX 77388 $219,900 2,533 平方英尺. 9,583 平方英尺. $87
2017-12-18 独户式别墅 Traditional 18 White Willow Circle Spring, TX 77381 $188,000 1,572 平方英尺. 7,841 平方英尺. $120
2017-12-18 独户式别墅 Traditional 222 Rockwell Park Boulevard Spring, TX 77389 $590,000 3,298 平方英尺. 8,276 平方英尺. $179
2017-12-18 独户式别墅 Traditional 24914 Aughton Court Spring, TX 77389 $299,000 3,672 平方英尺. 7,405 平方英尺. $81
2017-12-18 独户式别墅 Traditional 3602 Willie Way Spring, TX 77380 $75,000 1,524 平方英尺. 8,276 平方英尺. $49
2017-12-18 独户式别墅 Traditional 7026 Stoney River Drive Spring, TX 77379 $169,900 1,470 平方英尺. 8,276 平方英尺. $116
2017-12-18 独户式别墅 Traditional 21515 Lozar Drive Spring, TX 77379 $334,900 3,852 平方英尺. 6,534 平方英尺. $87
2017-12-17 独户式别墅 Traditional 22126 Jay Drive Spring, TX 77373 $169,000 2,004 平方英尺. 14,810 平方英尺. $84
2017-12-17 独户式别墅 Ranch 3510 Hickory Hollow Road Spring, TX 77380 $84,500 2,502 平方英尺. 23,958 平方英尺. $34
2017-12-17 独户式别墅 Traditional 16023 Stewarts Grove Spring, TX 77379 $584,900 6,362 平方英尺. 12,197 平方英尺. $92
2017-12-16 独户式别墅 Traditional 23207 Pebworth Place Spring, TX 77373 $115,000 1,213 平方英尺. 2,178 平方英尺. $95
2017-12-16 独户式别墅 Traditional 17802 Paddle Wheel Drive Spring, TX 77379 $142,000 2,380 平方英尺. 6,098 平方英尺. $60
2017-12-16 独户式别墅 Ranch 17103 Seven Pines Drive Spring, TX 77379 $159,500 1,868 平方英尺. 6,970 平方英尺. $85
2017-12-16 独户式别墅 Traditional 4 Greeningdon Street Spring, TX 77381 $185,000 1,456 平方英尺. 7,405 平方英尺. $127
2017-12-16 独户式别墅 Traditional 46 Tallowberry Drive Spring, TX 77381 $259,000 2,772 平方英尺. 7,405 平方英尺. $93
2017-12-16 独户式别墅 English 6331 Sampras Ace Court Spring, TX 77379 $184,900 3,303 平方英尺. 8,712 平方英尺. $56
2017-12-15 独户式别墅 Traditional 2594 Magnolia Fair Way Spring, TX 77386 $230,000 2,441 平方英尺. 5,227 平方英尺. $94
2017-12-15 独户式别墅 Other Style 9202 Scenic Gardens Woods Lane Spring, TX 77379 $299,900 2,216 平方英尺. 2,614 平方英尺. $135
2017-12-15 独户式别墅 Split Level 23403 Bayleaf Drive Spring, TX 77373 $130,000 2,058 平方英尺. 7,841 平方英尺. $63
2017-12-15 独户式别墅 Ranch 5934 Skyhaven Lane Spring, TX 77379 $205,900 1,859 平方英尺. 6,534 平方英尺. $111
2017-12-15 独户式别墅 Traditional 131 Bethany Bend Circle Spring, TX 77382 $449,000 2,921 平方英尺. 6,970 平方英尺. $154
2017-12-15 独户式别墅 Traditional 6218 Knollwood Trail Spring, TX 77373 $183,500 1,722 平方英尺. 7,405 平方英尺. $107
2017-12-15 独户式别墅 Traditional 24046 Lestergate Drive Spring, TX 77373 $185,000 1,970 平方英尺. 7,405 平方英尺. $94
2017-12-15 独户式别墅 Traditional 1923 Louetta Lee Drive Spring, TX 77388 $219,000 2,721 平方英尺. 5,663 平方英尺. $80
2017-12-15 独户式别墅 Traditional 5007 Deer Point Drive Spring, TX 77389 $129,900 1,248 平方英尺. 5,227 平方英尺. $104
2017-12-15 独户式别墅 Traditional 24523 Pine Canyon Drive Spring, TX 77380 $79,000 1,444 平方英尺. 11,326 平方英尺. $55
2017-12-15 独户式别墅 Traditional 23910 Conefall Court Spring, TX 77373 $147,000 1,881 平方英尺. 12,197 平方英尺. $78
2017-12-15 独户式别墅 Colonial 18918 Casper Drive Spring, TX 77373 $114,999 2,074 平方英尺. 15,682 平方英尺. $55
2017-12-15 独户式别墅 Traditional 23506 Breckenridge Dale Spring, TX 77373 $196,015 1,975 平方英尺. $99
2017-12-15 独户式别墅 Traditional 31302 Sunset Oaks Lane Spring, TX 77386 $430,000 4,211 平方英尺. 11,761 平方英尺. $102
2017-12-15 独户式别墅 Ranch 3302 Long Shadows Street Spring, TX 77380 $175,000 1,662 平方英尺. 12,197 平方英尺. $105
2017-12-15 独户式别墅 Traditional 23 Milepost Court Spring, TX 77382 $390,000 2,928 平方英尺. 11,761 平方英尺. $133
2017-12-14 独户式别墅 Traditional 22527 Millgate Drive Spring, TX 77373 $156,500 1,564 平方英尺. 6,970 平方英尺. $100
2017-12-14 独户式别墅 Traditional 3106 Crescent Oaks Park Lane Spring, TX 77386 $243,990 2,651 平方英尺. 4,792 平方英尺. $92
2017-12-14 独户式别墅 Traditional 3307 Candlewisp Circle Spring, TX 77388 $234,999 2,941 平方英尺. 16,553 平方英尺. $80
2017-12-14 独户式别墅 Traditional 2022 Sekola Lane Spring, TX 77386 $154,990 1,557 平方英尺. 7,405 平方英尺. $100
2017-12-14 独户式别墅 Traditional 22118 Bridgestone Pine Court Spring, TX 77388 $259,900 2,929 平方英尺. 6,970 平方英尺. $89
2017-12-14 独户式别墅 Traditional 86 Valera Ridge Drive Spring, TX 77389 $669,900 3,764 平方英尺. 10,019 平方英尺. $178
2017-12-14 独户式别墅 Ranch 4618 Countrymeadows Drive Spring, TX 77388 $294,900 3,673 平方英尺. 7,841 平方英尺. $80
2017-12-14 独户式别墅 Traditional 6303 Lazy Meadow Way Spring, TX 77386 $819,990 5,104 平方英尺. 44,867 平方英尺. $161
2017-12-14 独户式别墅 Traditional 3822 Coltwood Drive Spring, TX 77388 $165,000 1,876 平方英尺. 7,405 平方英尺. $88
2017-12-14 独户式别墅 Traditional 38 Acacia Park Circle Spring, TX 77382 $325,000 2,310 平方英尺. 11,761 平方英尺. $141